createdAt,value
2022-09-13T00:01:14.711Z,100702.66
2022-09-13T00:03:42.586Z,100706.78
2022-09-13T00:06:13.086Z,100701.31
2022-09-13T00:08:43.197Z,100700.97
2022-09-13T00:11:24.770Z,100700.97
2022-09-13T00:13:53.239Z,100698.19
2022-09-13T00:16:23.167Z,100697.59
2022-09-13T00:18:51.644Z,100694.25
2022-09-13T00:21:21.423Z,100686.34
2022-09-13T00:23:51.916Z,100684.38
2022-09-13T00:26:24.078Z,100680.22
2022-09-13T00:28:53.497Z,100690.00
2022-09-13T00:31:26.028Z,100685.47
2022-09-13T00:33:54.525Z,100688.81
2022-09-13T00:36:22.039Z,100693.09
2022-09-13T00:38:49.559Z,100688.34
2022-09-13T00:41:19.942Z,100683.22
2022-09-13T00:43:52.297Z,100684.81
2022-09-13T00:46:44.210Z,100684.50
2022-09-13T00:49:24.329Z,100684.47
2022-09-13T00:52:01.927Z,100692.78
2022-09-13T00:54:42.446Z,100688.00
2022-09-13T00:57:13.517Z,100691.09
2022-09-13T00:59:48.106Z,100680.88
2022-09-13T01:02:15.917Z,100680.03
2022-09-13T01:04:44.323Z,100678.81
2022-09-13T01:07:15.299Z,100690.56
2022-09-13T01:09:45.888Z,100690.56
2022-09-13T01:12:26.643Z,100676.22
2022-09-13T01:14:57.551Z,100681.75
2022-09-13T01:17:27.544Z,100673.53
2022-09-13T01:19:55.206Z,100660.75
2022-09-13T01:22:33.310Z,100670.00
2022-09-13T01:25:20.905Z,100668.78
2022-09-13T01:28:00.847Z,100670.44
2022-09-13T01:30:57.633Z,100667.41
2022-09-13T01:33:59.933Z,100676.06
2022-09-13T01:36:47.459Z,100678.66
2022-09-13T01:39:22.335Z,100672.59
2022-09-13T01:42:17.588Z,100669.13
2022-09-13T01:44:58.556Z,100672.38
2022-09-13T01:47:38.919Z,100661.81
2022-09-13T01:50:11.269Z,100662.63
2022-09-13T01:52:52.688Z,100660.91
2022-09-13T01:55:59.149Z,100667.03
2022-09-13T01:58:49.843Z,100661.94
2022-09-13T02:01:24.376Z,100663.34
2022-09-13T02:03:55.844Z,100666.09
2022-09-13T02:06:50.070Z,100662.91
2022-09-13T02:09:28.317Z,100668.28
2022-09-13T02:12:08.376Z,100665.06
2022-09-13T02:14:39.144Z,100662.56
2022-09-13T02:17:12.882Z,100666.44
2022-09-13T02:20:06.474Z,100671.22
2022-09-13T02:22:39.317Z,100667.81
2022-09-13T02:25:10.638Z,100654.00
2022-09-13T02:27:41.459Z,100648.91
2022-09-13T02:30:11.495Z,100657.94
2022-09-13T02:33:01.963Z,100647.59
2022-09-13T02:35:37.856Z,100634.34
2022-09-13T02:38:13.071Z,100640.56
2022-09-13T02:40:49.597Z,100641.16
2022-09-13T02:43:29.217Z,100643.13
2022-09-13T02:46:20.602Z,100641.75
2022-09-13T02:49:26.542Z,100645.44
2022-09-13T02:51:56.258Z,100639.66
2022-09-13T02:54:37.314Z,100637.28
2022-09-13T02:57:53.961Z,100624.31
2022-09-13T03:00:22.034Z,100625.97
2022-09-13T03:02:55.045Z,100624.13
2022-09-13T03:05:23.054Z,100623.28
2022-09-13T03:07:51.623Z,100620.22
2022-09-13T03:10:20.594Z,100620.06
2022-09-13T03:13:20.839Z,100605.72
2022-09-13T03:15:55.930Z,100605.28
2022-09-13T03:18:41.621Z,100605.13
2022-09-13T03:21:14.782Z,100606.09
2022-09-13T03:24:11.837Z,100606.38
2022-09-13T03:26:49.750Z,100606.16
2022-09-13T03:29:37.694Z,100601.06
2022-09-13T03:32:27.167Z,100600.63
2022-09-13T03:35:19.075Z,100597.00
2022-09-13T03:38:05.810Z,100595.19
2022-09-13T03:40:33.320Z,100594.56
2022-09-13T03:43:13.755Z,100593.34
2022-09-13T03:45:50.294Z,100597.28
2022-09-13T03:48:18.714Z,100599.47
2022-09-13T03:50:48.144Z,100599.69
2022-09-13T03:53:22.076Z,100599.31
2022-09-13T03:55:49.701Z,100598.81
2022-09-13T03:58:19.379Z,100599.53
2022-09-13T04:00:47.126Z,100593.19
2022-09-13T04:03:15.311Z,100589.31
2022-09-13T04:05:42.766Z,100595.38
2022-09-13T04:08:10.265Z,100604.34
2022-09-13T04:10:37.855Z,100599.97
2022-09-13T04:13:06.662Z,100601.56
2022-09-13T04:15:34.649Z,100601.84
2022-09-13T04:18:02.217Z,100603.50
2022-09-13T04:20:29.975Z,100606.78
2022-09-13T04:23:00.720Z,100603.88
2022-09-13T04:25:28.211Z,100603.38
2022-09-13T04:27:56.545Z,100603.91
2022-09-13T04:30:24.015Z,100604.13
2022-09-13T04:32:51.776Z,100604.72
2022-09-13T04:35:20.037Z,100607.25
2022-09-13T04:37:47.517Z,100606.72
2022-09-13T04:40:15.263Z,100607.44
2022-09-13T04:42:44.799Z,100601.16
2022-09-13T04:45:12.447Z,100606.19
2022-09-13T04:47:39.907Z,100600.31
2022-09-13T04:50:10.269Z,100597.25
2022-09-13T04:52:39.939Z,100605.25
2022-09-13T04:55:07.858Z,100608.88
2022-09-13T04:57:35.362Z,100609.88
2022-09-13T05:00:03.475Z,100613.22
2022-09-13T05:02:31.455Z,100610.59
2022-09-13T05:04:59.085Z,100612.66
2022-09-13T05:07:28.833Z,100617.16
2022-09-13T05:09:56.527Z,100609.06
2022-09-13T05:12:24.150Z,100605.84
2022-09-13T05:14:51.647Z,100607.88
2022-09-13T05:17:19.283Z,100611.78
2022-09-13T05:19:47.009Z,100613.41
2022-09-13T05:22:14.556Z,100613.41
2022-09-13T05:24:43.198Z,100617.59
2022-09-13T05:27:13.017Z,100612.34
2022-09-13T05:29:41.250Z,100619.84
2022-09-13T05:32:08.810Z,100612.59
2022-09-13T05:34:36.373Z,100615.34
2022-09-13T05:37:04.093Z,100619.66
2022-09-13T05:39:48.369Z,100626.44
2022-09-13T05:42:19.489Z,100631.53
2022-09-13T05:44:47.113Z,100618.94
2022-09-13T05:47:14.725Z,100637.69
2022-09-13T05:50:08.355Z,100624.06
2022-09-13T05:52:29.841Z,100631.19
2022-09-13T05:54:57.414Z,100625.84
2022-09-13T05:57:24.967Z,100634.25
2022-09-13T05:59:52.637Z,100624.44
2022-09-13T06:02:20.253Z,100614.84
2022-09-13T06:04:50.723Z,100611.56
2022-09-13T06:07:18.699Z,100620.56
2022-09-13T06:09:46.231Z,100621.19
2022-09-13T06:12:14.004Z,100625.06
2022-09-13T06:14:41.798Z,100629.38
2022-09-13T06:17:15.134Z,100626.44
2022-09-13T06:19:43.663Z,100629.50
2022-09-13T06:22:11.368Z,100623.84
2022-09-13T06:24:41.327Z,100631.88
2022-09-13T06:27:10.444Z,100640.34
2022-09-13T06:29:38.019Z,100632.66
2022-09-13T06:37:45.618Z,100627.84
2022-09-13T06:45:11.340Z,100646.16
2022-09-13T06:47:39.953Z,100654.56
2022-09-13T06:50:14.380Z,100635.88
2022-09-13T06:52:44.305Z,100636.81
2022-09-13T06:59:04.223Z,100641.97
2022-09-13T07:02:11.902Z,100647.38
2022-09-13T07:36:46.055Z,100661.00
2022-09-13T07:39:22.016Z,100658.59
2022-09-13T07:41:57.375Z,100644.91
2022-09-13T07:44:47.995Z,100645.56
2022-09-13T07:48:34.811Z,100657.25
2022-09-13T07:51:05.801Z,100659.63
2022-09-13T07:53:46.188Z,100665.28
2022-09-13T07:56:41.931Z,100660.75
2022-09-13T08:00:05.959Z,100664.75
2022-09-13T08:02:55.069Z,100667.84
2022-09-13T08:08:55.424Z,100690.09
2022-09-13T08:11:26.218Z,100677.81
2022-09-13T08:14:18.402Z,100675.16
2022-09-13T08:16:46.162Z,100675.94
2022-09-13T08:19:18.471Z,100685.66
2022-09-13T08:21:47.060Z,100676.13
2022-09-13T08:24:23.577Z,100679.03
2022-09-13T08:26:52.298Z,100682.38
2022-09-13T08:29:20.019Z,100687.25
2022-09-13T08:31:57.269Z,100691.78
2022-09-13T08:34:24.981Z,100700.31
2022-09-13T08:36:52.515Z,100689.72
2022-09-13T08:39:20.081Z,100693.84
2022-09-13T08:42:11.031Z,100708.28
2022-09-13T08:44:50.578Z,100695.00
2022-09-13T08:47:36.220Z,100692.28
2022-09-13T08:50:23.650Z,100683.69
2022-09-13T08:53:07.298Z,100708.16
2022-09-13T08:55:43.314Z,100710.44
2022-09-13T08:58:43.060Z,100702.50
2022-09-13T09:01:22.638Z,100708.09
2022-09-13T09:04:08.846Z,100695.00
2022-09-13T09:06:36.970Z,100707.59
2022-09-13T09:09:07.789Z,100695.09
2022-09-13T09:12:21.676Z,100695.88
2022-09-13T09:15:03.798Z,100696.03
2022-09-13T09:17:55.942Z,100688.53
2022-09-13T09:20:28.872Z,100701.28
2022-09-13T09:22:56.433Z,100699.31
2022-09-13T09:25:26.817Z,100710.84
2022-09-13T09:27:55.784Z,100710.41
2022-09-13T09:30:56.402Z,100699.88
2022-09-13T09:33:55.194Z,100704.22
2022-09-13T09:36:44.721Z,100717.28
2022-09-13T09:39:16.437Z,100710.34
2022-09-13T09:41:47.873Z,100702.00
2022-09-13T09:44:23.767Z,100703.22
2022-09-13T09:46:57.819Z,100703.75
2022-09-13T09:50:10.117Z,100695.56
2022-09-13T09:53:03.169Z,100689.03
2022-09-13T09:55:35.064Z,100685.94
2022-09-13T09:58:06.537Z,100680.09
2022-09-13T10:00:58.178Z,100682.66
2022-09-13T10:03:31.810Z,100693.00
2022-09-13T10:06:13.129Z,100684.25
2022-09-13T10:09:16.720Z,100680.34
2022-09-13T10:11:54.034Z,100669.84
2022-09-13T10:15:15.551Z,100658.41
2022-09-13T10:17:51.029Z,100662.47
2022-09-13T10:20:23.484Z,100658.75
2022-09-13T10:23:23.596Z,100665.06
2022-09-13T10:26:02.883Z,100671.16
2022-09-13T10:28:35.281Z,100663.13
2022-09-13T10:31:16.874Z,100660.22
2022-09-13T10:34:01.562Z,100640.66
2022-09-13T10:39:23.565Z,100641.38
2022-09-13T10:41:59.792Z,100647.38
2022-09-13T10:44:47.014Z,100642.09
2022-09-13T10:47:22.342Z,100637.13
2022-09-13T10:49:57.172Z,100629.16
2022-09-13T10:52:43.566Z,100629.06
2022-09-13T10:55:29.158Z,100628.31
2022-09-13T10:58:17.565Z,100622.66
2022-09-13T11:01:50.060Z,100630.72
2022-09-13T11:05:20.099Z,100608.94
2022-09-13T11:08:09.071Z,100606.84
2022-09-13T11:10:43.774Z,100597.91
2022-09-13T11:13:34.862Z,100599.09
2022-09-13T11:16:20.384Z,100597.00
2022-09-13T11:19:08.765Z,100600.19
2022-09-13T11:22:18.791Z,100594.75
2022-09-13T11:25:23.298Z,100599.19
2022-09-13T11:28:08.349Z,100603.44
2022-09-13T11:30:41.511Z,100610.00
2022-09-13T11:33:49.627Z,100607.44
2022-09-13T11:36:58.177Z,100603.44
2022-09-13T11:39:32.931Z,100610.41
2022-09-13T11:42:00.467Z,100605.91
2022-09-13T11:45:30.669Z,100596.44
2022-09-13T11:48:17.248Z,100601.59
2022-09-13T11:50:50.623Z,100604.03
2022-09-13T11:54:01.830Z,100589.72
2022-09-13T11:56:39.010Z,100591.75
2022-09-13T11:59:26.796Z,100591.69
2022-09-13T12:02:03.343Z,100587.34
2022-09-13T12:04:42.266Z,100582.91
2022-09-13T12:07:19.381Z,100579.69
2022-09-13T12:10:02.627Z,100577.25
2022-09-13T12:12:36.932Z,100569.28
2022-09-13T12:15:17.690Z,100576.53
2022-09-13T12:17:53.368Z,100566.97
2022-09-13T12:21:17.077Z,100560.47
2022-09-13T12:27:43.218Z,100550.97
2022-09-13T12:30:21.062Z,100558.22
2022-09-13T12:32:49.581Z,100554.66
2022-09-13T12:35:30.297Z,100554.63
2022-09-13T12:38:29.374Z,100558.19
2022-09-13T12:41:25.699Z,100553.19
2022-09-13T12:44:14.800Z,100549.41
2022-09-13T12:47:39.187Z,100546.34
2022-09-13T12:53:32.937Z,100538.94
2022-09-13T12:56:11.034Z,100542.63
2022-09-13T12:58:56.673Z,100540.91
2022-09-13T13:01:34.647Z,100534.19
2022-09-13T13:04:10.901Z,100530.53
2022-09-13T13:07:34.753Z,100537.25
2022-09-13T13:13:55.648Z,100533.72
2022-09-13T13:19:41.806Z,100532.59
2022-09-13T13:29:08.424Z,100526.56
2022-09-13T13:34:53.624Z,100516.31
2022-09-13T13:40:29.753Z,100519.41
2022-09-13T13:49:39.554Z,100519.34
2022-09-13T14:35:42.264Z,100505.28
2022-09-13T15:11:53.190Z,100491.84
2022-09-13T15:31:33.596Z,100471.50
2022-09-13T15:34:22.006Z,100475.56
2022-09-13T15:37:01.715Z,100478.28
2022-09-13T15:39:29.554Z,100472.09
2022-09-13T15:42:00.105Z,100474.13
2022-09-13T15:44:32.722Z,100472.97
2022-09-13T15:47:04.063Z,100472.84
2022-09-13T16:12:34.302Z,100456.38
2022-09-13T16:20:21.636Z,100461.00
2022-09-13T16:22:53.102Z,100459.19
2022-09-13T16:28:24.585Z,100444.47
2022-09-13T16:30:42.183Z,100462.22
2022-09-13T16:34:33.963Z,100460.53
2022-09-13T16:41:11.671Z,100455.53
2022-09-13T16:44:55.211Z,100453.63
2022-09-13T16:51:06.728Z,100462.25
2022-09-13T16:53:38.310Z,100464.56
2022-09-13T16:56:12.368Z,100466.84
2022-09-13T16:58:41.626Z,100468.22
2022-09-13T17:01:14.827Z,100470.41
2022-09-13T17:03:54.031Z,100469.50
2022-09-13T17:06:24.044Z,100472.66
2022-09-13T17:09:04.495Z,100475.53
2022-09-13T17:11:35.349Z,100469.88
2022-09-13T17:14:05.184Z,100476.88
2022-09-13T17:16:54.119Z,100475.41
2022-09-13T17:19:25.979Z,100477.97
2022-09-13T17:21:57.444Z,100477.06
2022-09-13T17:24:27.102Z,100472.00
2022-09-13T17:26:56.877Z,100476.38
2022-09-13T17:29:31.689Z,100481.88
2022-09-13T17:32:01.469Z,100477.63
2022-09-13T17:34:32.104Z,100485.84
2022-09-13T17:37:50.013Z,100484.56
2022-09-13T17:40:20.219Z,100482.81
2022-09-13T17:42:51.163Z,100478.69
2022-09-13T17:45:19.470Z,100487.38
2022-09-13T17:47:53.168Z,100491.94
2022-09-13T17:50:33.444Z,100488.91
2022-09-13T17:53:08.492Z,100499.09
2022-09-13T17:55:49.821Z,100493.56
2022-09-13T17:58:22.219Z,100494.31
2022-09-13T18:01:04.543Z,100490.34
2022-09-13T18:03:36.604Z,100495.75
2022-09-13T18:07:14.664Z,100506.56
2022-09-13T18:09:43.466Z,100503.28
2022-09-13T18:12:11.943Z,100506.06
2022-09-13T18:16:04.523Z,100508.41
2022-09-13T18:18:35.063Z,100500.56
2022-09-13T18:21:09.537Z,100502.69
2022-09-13T18:23:37.199Z,100509.84
2022-09-13T18:26:11.771Z,100510.75
2022-09-13T18:28:45.306Z,100509.66
2022-09-13T18:31:24.214Z,100511.72
2022-09-13T18:34:00.505Z,100514.16
2022-09-13T18:36:31.127Z,100518.38
2022-09-13T18:39:05.060Z,100522.03
2022-09-13T18:41:40.388Z,100521.16
2022-09-13T18:44:21.123Z,100522.41
2022-09-13T18:46:50.672Z,100534.22
2022-09-13T18:49:25.164Z,100537.41
2022-09-13T18:51:58.127Z,100531.41
2022-09-13T18:54:35.677Z,100529.19
2022-09-13T18:57:03.654Z,100534.31
2022-09-13T18:59:38.863Z,100530.66
2022-09-13T19:02:29.168Z,100531.97
2022-09-13T19:16:32.703Z,100542.09
2022-09-13T19:19:04.886Z,100550.56
2022-09-13T19:19:20.771Z,100539.94
2022-09-13T19:21:51.218Z,100541.03
2022-09-13T19:30:48.096Z,100556.56
2022-09-13T19:37:20.866Z,100559.41
2022-09-13T19:49:26.984Z,100573.06
2022-09-13T20:41:00.932Z,100578.13
2022-09-13T20:43:49.226Z,100568.59
2022-09-13T20:46:36.461Z,100560.59
2022-09-13T20:49:05.646Z,100551.03
2022-09-13T21:16:48.845Z,100571.44
2022-09-13T21:19:16.401Z,100576.50
2022-09-13T21:21:44.053Z,100570.34
2022-09-13T21:24:12.760Z,100564.38
2022-09-13T21:26:42.478Z,100577.84
2022-09-13T21:29:14.436Z,100574.22
2022-09-13T21:31:42.474Z,100564.72
2022-09-13T21:34:20.216Z,100574.34
2022-09-13T21:36:53.719Z,100574.75
2022-09-13T21:39:21.435Z,100571.06
2022-09-13T21:41:49.622Z,100580.69
2022-09-13T21:44:19.672Z,100571.19
2022-09-13T21:46:47.307Z,100569.69
2022-09-13T21:49:15.907Z,100567.22
2022-09-13T21:51:46.639Z,100575.16
2022-09-13T21:54:19.437Z,100572.06
2022-09-13T21:56:54.900Z,100560.97
2022-09-13T21:59:29.732Z,100553.06
2022-09-13T22:02:32.086Z,100550.50
2022-09-13T22:05:28.468Z,100559.13
2022-09-13T22:08:22.075Z,100560.63
2022-09-13T22:10:57.282Z,100540.06
2022-09-13T22:13:31.423Z,100526.91
2022-09-13T22:16:10.949Z,100534.03
2022-09-13T22:18:42.560Z,100531.97
2022-09-13T22:21:19.211Z,100528.88
2022-09-13T22:23:49.787Z,100543.28
2022-09-13T22:26:24.311Z,100541.16
2022-09-13T22:28:55.891Z,100543.53
2022-09-13T22:31:43.145Z,100534.91
2022-09-13T22:34:22.051Z,100541.66
2022-09-13T22:37:00.445Z,100539.31
2022-09-13T22:39:32.017Z,100532.81
2022-09-13T22:42:00.580Z,100525.38
2022-09-13T22:44:33.423Z,100538.47
2022-09-13T22:47:07.519Z,100526.09
2022-09-13T22:49:41.207Z,100525.00
2022-09-13T22:52:09.243Z,100523.25
2022-09-13T22:54:39.075Z,100527.16
2022-09-13T22:57:09.363Z,100523.16
2022-09-13T22:59:37.188Z,100505.38
2022-09-13T23:02:04.898Z,100514.50
2022-09-13T23:04:35.011Z,100513.34
2022-09-13T23:07:12.478Z,100502.22
2022-09-13T23:09:41.417Z,100517.38
2022-09-13T23:12:15.033Z,100516.66
2022-09-13T23:14:45.409Z,100512.22
2022-09-13T23:17:18.875Z,100510.94
2022-09-13T23:19:46.592Z,100508.56
2022-09-13T23:22:25.321Z,100521.31
2022-09-13T23:25:00.359Z,100512.28
2022-09-13T23:27:28.171Z,100522.84
2022-09-13T23:37:31.239Z,100526.06
2022-09-13T23:41:28.878Z,100529.09
2022-09-13T23:44:09.140Z,100528.66
2022-09-13T23:46:50.841Z,100529.53
2022-09-13T23:50:02.870Z,100522.84
2022-09-13T23:52:48.185Z,100531.13
2022-09-13T23:55:41.747Z,100537.91
2022-09-13T23:58:11.826Z,100526.81
